createdAt,value
2019-04-01T00:01:23.191Z,26.80
2019-04-01T00:03:50.413Z,25.10
2019-04-01T00:06:17.707Z,25.77
2019-04-01T00:08:44.943Z,24.70
2019-04-01T00:11:12.176Z,27.33
2019-04-01T00:13:39.405Z,28.10
2019-04-01T00:16:06.642Z,27.42
2019-04-01T00:18:33.926Z,27.33
2019-04-01T00:21:01.206Z,25.83
2019-04-01T00:23:28.483Z,26.48
2019-04-01T00:25:55.706Z,26.85
2019-04-01T00:28:22.952Z,26.65
2019-04-01T00:30:50.182Z,25.77
2019-04-01T00:33:17.423Z,25.05
2019-04-01T00:35:44.703Z,26.35
2019-04-01T00:38:11.961Z,24.92
2019-04-01T00:40:39.208Z,26.30
2019-04-01T00:43:08.087Z,25.10
2019-04-01T00:45:36.973Z,25.77
2019-04-01T00:48:04.273Z,26.73
2019-04-01T00:50:31.718Z,27.32
2019-04-01T00:52:59.027Z,27.87
2019-04-01T00:55:26.394Z,26.48
2019-04-01T00:57:53.641Z,26.42
2019-04-01T01:00:20.863Z,25.97
2019-04-01T01:02:48.102Z,26.50
2019-04-01T01:05:15.396Z,27.02
2019-04-01T01:07:42.639Z,27.95
2019-04-01T01:10:10.244Z,26.85
2019-04-01T01:12:37.480Z,27.00
2019-04-01T01:15:05.699Z,27.62
2019-04-01T01:17:32.931Z,27.42
2019-04-01T01:20:00.340Z,27.25
2019-04-01T01:22:27.666Z,27.98
2019-04-01T01:24:54.895Z,25.97
2019-04-01T01:27:22.135Z,26.48
2019-04-01T01:29:49.631Z,26.33
2019-04-01T01:32:16.862Z,28.05
2019-04-01T01:34:44.091Z,26.97
2019-04-01T01:37:11.313Z,28.10
2019-04-01T01:39:38.603Z,26.12
2019-04-01T01:42:05.866Z,27.15
2019-04-01T01:44:33.095Z,28.62
2019-04-01T01:47:00.317Z,25.52
2019-04-01T01:49:27.547Z,26.30
2019-04-01T01:51:54.833Z,27.45
2019-04-01T01:54:22.106Z,25.95
2019-04-01T01:56:49.332Z,26.15
2019-04-01T01:59:16.650Z,28.32
2019-04-01T02:01:43.972Z,27.95
2019-04-01T02:04:11.418Z,28.25
2019-04-01T02:06:38.768Z,26.82
2019-04-01T02:09:06.314Z,28.25
2019-04-01T02:11:33.537Z,25.88
2019-04-01T02:14:00.762Z,29.12
2019-04-01T02:16:27.986Z,26.17
2019-04-01T02:18:55.215Z,25.55
2019-04-01T02:21:22.435Z,27.55
2019-04-01T02:23:49.662Z,26.25
2019-04-01T02:26:16.891Z,25.70
2019-04-01T02:28:44.128Z,25.23
2019-04-01T02:31:11.358Z,29.57
2019-04-01T02:33:38.582Z,27.73
2019-04-01T02:36:06.061Z,25.97
2019-04-01T02:38:33.287Z,25.82
2019-04-01T02:41:00.702Z,28.32
2019-04-01T02:43:27.928Z,24.87
2019-04-01T02:45:55.150Z,25.77
2019-04-01T02:48:22.367Z,27.10
2019-04-01T02:50:49.598Z,26.05
2019-04-01T02:53:16.821Z,27.93
2019-04-01T02:55:44.146Z,28.27
2019-04-01T02:58:11.400Z,26.55
2019-04-01T03:00:38.630Z,27.67
2019-04-01T03:03:05.857Z,28.77
2019-04-01T03:05:33.110Z,26.40
2019-04-01T03:08:00.470Z,25.10
2019-04-01T03:10:27.682Z,26.77
2019-04-01T03:12:55.153Z,26.80
2019-04-01T03:15:22.386Z,25.82
2019-04-01T03:17:49.611Z,29.32
2019-04-01T03:20:16.843Z,26.52
2019-04-01T03:22:44.443Z,26.30
2019-04-01T03:25:11.672Z,24.05
2019-04-01T03:27:38.890Z,26.82
2019-04-01T03:30:06.130Z,26.52
2019-04-01T03:32:33.356Z,27.22
2019-04-01T03:35:01.591Z,25.70
2019-04-01T03:37:29.391Z,26.07
2019-04-01T03:39:56.704Z,24.98
2019-04-01T03:42:24.020Z,27.00
2019-04-01T03:44:55.044Z,26.52
2019-04-01T03:47:20.305Z,26.02
2019-04-01T03:49:47.526Z,25.55
2019-04-01T03:52:15.219Z,25.72
2019-04-01T03:54:42.486Z,27.02
2019-04-01T03:57:09.711Z,26.57
2019-04-01T03:59:36.940Z,25.55
2019-04-01T04:02:04.173Z,24.55
2019-04-01T04:04:31.447Z,27.10
2019-04-01T04:06:58.671Z,25.25
2019-04-01T04:09:25.899Z,25.52
2019-04-01T04:11:53.140Z,27.70
2019-04-01T04:14:20.384Z,25.08
2019-04-01T04:16:47.616Z,26.97
2019-04-01T04:19:14.919Z,27.87
2019-04-01T04:21:42.213Z,27.05
2019-04-01T04:24:09.491Z,25.02
2019-04-01T04:26:36.753Z,24.27
2019-04-01T04:29:04.329Z,25.85
2019-04-01T04:31:31.555Z,27.17
2019-04-01T04:33:58.775Z,25.37
2019-04-01T04:36:26.012Z,24.37
2019-04-01T04:38:53.239Z,26.35
2019-04-01T04:41:20.475Z,28.95
2019-04-01T04:43:47.694Z,24.77
2019-04-01T04:46:14.936Z,25.57
2019-04-01T04:48:42.217Z,26.23
2019-04-01T04:51:09.676Z,27.70
2019-04-01T04:53:36.899Z,28.12
2019-04-01T04:56:04.138Z,26.10
2019-04-01T04:58:31.355Z,24.32
2019-04-01T05:00:58.587Z,25.30
2019-04-01T05:03:25.815Z,24.00
2019-04-01T05:05:53.027Z,26.82
2019-04-01T05:08:20.340Z,25.57
2019-04-01T05:10:47.549Z,26.35
2019-04-01T05:13:14.779Z,23.52
2019-04-01T05:15:42.082Z,24.00
2019-04-01T05:18:09.307Z,26.75
2019-04-01T05:20:38.068Z,26.62
2019-04-01T05:23:05.290Z,25.72
2019-04-01T05:25:32.882Z,23.35
2019-04-01T05:28:01.619Z,27.30
2019-04-01T05:30:30.555Z,26.70
2019-04-01T05:32:57.787Z,26.60
2019-04-01T05:35:25.015Z,26.87
2019-04-01T05:37:52.312Z,27.13
2019-04-01T05:40:19.534Z,28.07
2019-04-01T05:42:46.819Z,26.30
2019-04-01T05:45:14.039Z,27.35
2019-04-01T05:47:42.903Z,25.05
2019-04-01T05:50:10.197Z,27.80
2019-04-01T05:52:37.595Z,28.35
2019-04-01T05:55:08.605Z,28.10
2019-04-01T05:57:34.236Z,25.40
2019-04-01T06:00:01.451Z,27.55
2019-04-01T06:02:28.683Z,27.15
2019-04-01T06:04:55.976Z,26.55
2019-04-01T06:07:23.273Z,23.77
2019-04-01T06:09:50.500Z,25.85
2019-04-01T06:12:17.907Z,29.95
2019-04-01T06:14:45.198Z,28.52
2019-04-01T06:17:12.438Z,25.12
2019-04-01T06:19:39.651Z,28.75
2019-04-01T06:22:06.894Z,27.40
2019-04-01T06:24:34.119Z,27.15
2019-04-01T06:27:01.615Z,26.55
2019-04-01T06:29:29.307Z,27.25
2019-04-01T06:31:56.711Z,26.07
2019-04-01T06:34:24.126Z,27.25
2019-04-01T06:36:51.415Z,25.25
2019-04-01T07:23:18.380Z,27.10
2019-04-01T07:25:45.607Z,28.40
2019-04-01T07:28:12.845Z,27.10
2019-04-01T07:30:41.867Z,25.07
2019-04-01T07:33:09.055Z,27.37
2019-04-01T07:35:36.270Z,28.60
2019-04-01T07:38:03.821Z,26.90
2019-04-01T07:40:31.048Z,26.30
2019-04-01T07:42:58.274Z,28.17
2019-04-01T07:45:25.507Z,26.67
2019-04-01T07:47:53.527Z,27.43
2019-04-01T07:50:21.040Z,25.00
2019-04-01T07:52:48.271Z,28.63
2019-04-01T07:55:15.556Z,26.50
2019-04-01T07:57:42.782Z,25.33
2019-04-01T08:00:10.175Z,26.03
2019-04-01T08:02:37.416Z,26.60
2019-04-01T08:05:05.395Z,27.73
2019-04-01T08:07:32.620Z,26.30
2019-04-01T08:09:59.921Z,28.27
2019-04-01T08:12:28.029Z,28.33
2019-04-01T08:14:55.819Z,28.77
2019-04-01T08:17:23.039Z,25.83
2019-04-01T08:19:50.274Z,26.33
2019-04-01T08:22:17.499Z,25.87
2019-04-01T08:24:44.728Z,26.33
2019-04-01T08:27:12.016Z,24.20
2019-04-01T08:29:39.239Z,26.33
2019-04-01T08:32:06.458Z,27.63
2019-04-01T08:34:33.975Z,27.43
2019-04-01T08:37:01.267Z,28.00
2019-04-01T08:39:28.543Z,25.37
2019-04-01T08:41:55.788Z,27.67
2019-04-01T08:44:23.027Z,26.87
2019-04-01T08:46:50.251Z,26.87
2019-04-01T08:49:17.509Z,25.90
2019-04-01T08:51:44.819Z,25.20
2019-04-01T08:54:12.051Z,25.00
2019-04-01T08:56:39.316Z,24.33
2019-04-01T08:59:06.541Z,27.73
2019-04-01T09:01:35.511Z,26.77
2019-04-01T09:04:02.731Z,25.30
2019-04-01T09:06:31.480Z,27.30
2019-04-01T09:08:59.252Z,25.97
2019-04-01T09:11:27.858Z,26.23
2019-04-01T09:13:55.663Z,27.73
2019-04-01T09:16:22.887Z,25.47
2019-04-01T09:18:50.117Z,25.03
2019-04-01T09:21:17.425Z,23.47
2019-04-01T09:23:44.660Z,26.37
2019-04-01T09:26:11.919Z,26.07
2019-04-01T09:28:39.156Z,25.53
2019-04-01T09:31:06.387Z,25.67
2019-04-01T09:33:33.619Z,26.00
2019-04-01T09:36:00.848Z,26.77
2019-04-01T09:38:28.090Z,25.80
2019-04-01T09:40:55.323Z,26.50
2019-04-01T09:43:22.566Z,27.73
2019-04-01T09:45:49.794Z,25.50
2019-04-01T09:48:17.032Z,24.70
2019-04-01T09:50:44.268Z,27.13
2019-04-01T09:53:11.512Z,25.70
2019-04-01T09:55:38.744Z,25.27
2019-04-01T09:58:05.981Z,26.63
2019-04-01T10:00:33.282Z,25.90
2019-04-01T10:03:00.511Z,25.77
2019-04-01T10:05:27.743Z,24.50
2019-04-01T10:07:54.968Z,25.07
2019-04-01T10:10:22.207Z,25.53
2019-04-01T10:12:49.468Z,26.00
2019-04-01T10:15:16.711Z,26.23
2019-04-01T10:17:43.987Z,26.10
2019-04-01T10:20:11.292Z,26.33
2019-04-01T10:22:38.506Z,26.90
2019-04-01T10:25:05.928Z,26.83
2019-04-01T10:27:33.151Z,26.97
2019-04-01T10:30:00.430Z,26.60
2019-04-01T10:32:27.729Z,25.77
2019-04-01T10:34:55.109Z,28.60
2019-04-01T10:37:22.341Z,25.17
2019-04-01T10:39:49.551Z,28.83
2019-04-01T10:42:16.792Z,24.63
2019-04-01T10:44:44.076Z,25.17
2019-04-01T10:47:11.336Z,24.40
2019-04-01T10:49:38.617Z,24.13
2019-04-01T10:52:05.858Z,26.10
2019-04-01T10:54:33.182Z,26.03
2019-04-01T10:57:00.513Z,26.00
2019-04-01T10:59:27.776Z,25.70
2019-04-01T11:01:55.102Z,25.07
2019-04-01T11:04:22.504Z,25.00
2019-04-01T11:06:49.850Z,24.03
2019-04-01T11:09:17.111Z,25.27
2019-04-01T11:11:44.399Z,25.93
2019-04-01T11:14:11.630Z,24.87
2019-04-01T11:16:38.867Z,26.43
2019-04-01T11:19:06.187Z,26.37
2019-04-01T11:21:33.940Z,23.17
2019-04-01T11:24:02.114Z,24.90
2019-04-01T11:26:29.707Z,24.70
2019-04-01T11:28:56.927Z,24.13
2019-04-01T11:31:24.209Z,24.90
2019-04-01T11:33:51.472Z,24.90
2019-04-01T11:36:18.741Z,22.63
2019-04-01T11:38:46.026Z,24.37
2019-04-01T11:41:13.257Z,23.83
2019-04-01T11:43:40.520Z,21.50
2019-04-01T11:46:07.842Z,23.13
2019-04-01T11:48:35.160Z,23.47
2019-04-01T11:51:02.449Z,23.33
2019-04-01T11:53:29.761Z,24.40
2019-04-01T11:55:57.050Z,24.43
2019-04-01T11:58:24.269Z,23.80
2019-04-01T12:00:51.861Z,22.97
2019-04-01T12:03:19.971Z,21.30
2019-04-01T12:05:47.468Z,23.20
2019-04-01T12:08:14.693Z,19.93
2019-04-01T12:10:41.911Z,20.20
2019-04-01T12:13:09.136Z,21.00
2019-04-01T12:15:36.407Z,20.30
2019-04-01T12:18:03.806Z,20.70
2019-04-01T12:20:31.028Z,20.90
2019-04-01T12:22:58.258Z,21.87
2019-04-01T12:25:25.480Z,20.67
2019-04-01T12:27:52.731Z,20.43
2019-04-01T12:30:19.951Z,23.30
2019-04-01T12:32:47.179Z,20.07
2019-04-01T12:35:14.399Z,22.47
2019-04-01T12:37:41.627Z,21.80
2019-04-01T12:40:08.943Z,20.73
2019-04-01T12:42:36.176Z,21.30
2019-04-01T12:45:04.908Z,23.17
2019-04-01T12:47:32.123Z,23.20
2019-04-01T12:49:59.347Z,22.23
2019-04-01T12:52:26.576Z,21.67
2019-04-01T12:54:53.813Z,21.37
2019-04-01T12:57:21.364Z,22.23
2019-04-01T12:59:48.695Z,19.80
2019-04-01T13:02:18.136Z,20.53
2019-04-01T13:04:44.868Z,21.13
2019-04-01T13:07:12.103Z,22.83
2019-04-01T13:09:39.331Z,18.63
2019-04-01T13:12:06.568Z,18.70
2019-04-01T13:14:33.783Z,17.87
2019-04-01T13:17:01.007Z,18.60
2019-04-01T13:19:28.263Z,16.43
2019-04-01T13:21:55.459Z,17.70
2019-04-01T13:24:22.691Z,18.43
2019-04-01T13:26:50.986Z,17.30
2019-04-01T13:29:18.443Z,17.60
2019-04-01T13:31:45.667Z,17.17
2019-04-01T13:34:12.964Z,17.10
2019-04-01T13:36:40.251Z,20.00
2019-04-01T13:39:07.479Z,18.50
2019-04-01T13:41:42.338Z,19.77
2019-04-01T13:44:03.665Z,17.83
2019-04-01T13:46:30.892Z,18.77
2019-04-01T13:49:03.862Z,18.10
2019-04-01T13:51:27.064Z,17.73
2019-04-01T13:54:07.960Z,17.77
2019-04-01T13:56:23.235Z,19.00
2019-04-01T13:58:50.465Z,17.13
2019-04-01T14:01:17.678Z,16.10
2019-04-01T14:03:44.976Z,16.97
2019-04-01T14:06:12.191Z,15.87
2019-04-01T14:08:39.419Z,16.47
2019-04-01T14:11:06.640Z,16.23
2019-04-01T14:13:33.867Z,17.30
2019-04-01T14:16:01.087Z,17.50
2019-04-01T14:18:28.319Z,15.63
2019-04-01T14:20:55.534Z,17.73
2019-04-01T14:23:23.457Z,17.80
2019-04-01T14:25:50.890Z,16.73
2019-04-01T14:28:18.170Z,16.40
2019-04-01T14:30:45.655Z,17.00
2019-04-01T14:33:12.870Z,16.67
2019-04-01T14:35:40.097Z,15.30
2019-04-01T14:38:07.404Z,16.97
2019-04-01T14:40:34.694Z,16.60
2019-04-01T14:43:01.923Z,16.17
2019-04-01T14:45:29.190Z,15.87
2019-04-01T14:47:57.901Z,15.97
2019-04-01T14:50:25.414Z,16.40
2019-04-01T14:52:52.635Z,16.60
2019-04-01T14:55:19.952Z,18.63
2019-04-01T14:57:47.189Z,15.00
2019-04-01T15:00:15.172Z,16.80
2019-04-01T15:02:42.484Z,14.97
2019-04-01T15:05:09.759Z,16.20
2019-04-01T15:07:36.983Z,17.03
2019-04-01T15:10:05.750Z,15.87
2019-04-01T15:12:32.976Z,15.30
2019-04-01T15:15:00.205Z,15.60
2019-04-01T15:17:27.431Z,15.27
2019-04-01T15:19:54.683Z,16.23
2019-04-01T15:22:22.910Z,14.63
2019-04-01T15:24:50.875Z,15.27
2019-04-01T15:27:18.107Z,15.17
2019-04-01T15:29:45.338Z,15.57
2019-04-01T15:32:12.559Z,14.57
2019-04-01T15:34:39.873Z,14.93
2019-04-01T15:37:07.097Z,16.60
2019-04-01T15:39:34.324Z,15.30
2019-04-01T15:42:01.550Z,15.00
2019-04-01T15:44:29.380Z,15.00
2019-04-01T15:46:57.135Z,14.27
2019-04-01T15:49:24.695Z,14.83
2019-04-01T15:51:51.915Z,15.67
2019-04-01T15:54:19.263Z,13.37
2019-04-01T15:56:46.492Z,12.50
2019-04-01T15:59:13.714Z,13.93
2019-04-01T16:01:40.946Z,14.10
2019-04-01T16:04:08.620Z,15.20
2019-04-01T16:06:37.171Z,15.70
2019-04-01T16:09:05.639Z,15.27
2019-04-01T16:11:32.863Z,14.20
2019-04-01T16:14:00.094Z,15.47
2019-04-01T16:16:27.334Z,13.90
2019-04-01T16:18:54.562Z,13.80
2019-04-01T16:21:21.791Z,15.17
2019-04-01T16:23:49.066Z,13.40
2019-04-01T16:26:16.367Z,13.87
2019-04-01T16:28:43.588Z,15.17
2019-04-01T16:31:10.883Z,14.77
2019-04-01T16:33:38.110Z,14.43
2019-04-01T16:36:05.343Z,13.60
2019-04-01T16:38:32.574Z,12.87
2019-04-01T16:40:59.800Z,14.13
2019-04-01T16:43:27.024Z,14.63
2019-04-01T16:45:56.018Z,13.70
2019-04-01T16:48:23.259Z,14.87
2019-04-01T16:50:50.571Z,14.77
2019-04-01T16:53:17.783Z,13.73
2019-04-01T16:55:45.024Z,14.00
2019-04-01T16:58:12.267Z,13.47
2019-04-01T17:00:39.517Z,13.60
2019-04-01T17:03:06.740Z,14.97
2019-04-01T17:05:34.035Z,13.30
2019-04-01T17:08:01.626Z,15.00
2019-04-01T17:10:29.171Z,14.10
2019-04-01T17:12:56.399Z,13.73
2019-04-01T17:15:23.691Z,14.27
2019-04-01T17:17:50.994Z,11.50
2019-04-01T17:20:18.229Z,14.57
2019-04-01T17:22:45.448Z,13.40
2019-04-01T17:25:13.703Z,13.50
2019-04-01T17:27:40.904Z,14.13
2019-04-01T17:30:08.283Z,14.40
2019-04-01T17:32:35.514Z,13.20
2019-04-01T17:35:04.463Z,13.70
2019-04-01T17:37:31.686Z,13.80
2019-04-01T17:39:58.922Z,14.07
2019-04-01T17:42:26.151Z,13.30
2019-04-01T17:44:53.975Z,13.90
2019-04-01T17:47:21.215Z,14.67
2019-04-01T17:49:48.439Z,17.73
2019-04-01T17:52:15.671Z,24.73
2019-04-01T17:54:42.887Z,16.57
2019-04-01T17:57:10.118Z,16.33
2019-04-01T17:59:37.360Z,14.33
2019-04-01T18:02:06.332Z,14.97
2019-04-01T18:04:34.556Z,15.57
2019-04-01T18:07:03.791Z,15.53
2019-04-01T18:09:31.181Z,13.73
2019-04-01T18:11:58.808Z,14.40
2019-04-01T18:14:26.031Z,14.57
2019-04-01T18:16:53.276Z,16.50
2019-04-01T18:19:20.502Z,14.20
2019-04-01T18:21:48.060Z,14.97
2019-04-01T18:24:15.282Z,14.47
2019-04-01T18:26:42.542Z,13.13
2019-04-01T18:29:10.021Z,14.53
2019-04-01T18:31:37.659Z,13.40
2019-04-01T18:34:04.911Z,14.03
2019-04-01T18:36:34.714Z,13.83
2019-04-01T18:39:03.854Z,12.80
2019-04-01T18:41:30.014Z,14.63
2019-04-01T18:43:58.240Z,14.00
2019-04-01T18:46:25.491Z,15.30
2019-04-01T18:48:52.715Z,13.17
2019-04-01T18:51:20.512Z,14.87
2019-04-01T18:53:47.951Z,15.10
2019-04-01T18:56:15.178Z,14.97
2019-04-01T18:58:42.402Z,13.53
2019-04-01T19:01:09.627Z,15.00
2019-04-01T19:03:36.851Z,14.40
2019-04-01T19:06:04.215Z,12.93
2019-04-01T20:22:45.913Z,14.63
2019-04-01T20:25:13.317Z,16.15
2019-04-01T20:27:40.555Z,13.90
2019-04-01T20:30:09.646Z,15.40
2019-04-01T20:32:36.942Z,15.50
2019-04-01T20:35:05.714Z,15.53
2019-04-01T20:37:32.975Z,15.90
2019-04-01T20:40:00.226Z,15.67
2019-04-01T20:42:27.447Z,14.30
2019-04-01T20:44:54.675Z,16.67
2019-04-01T20:47:21.912Z,14.83
2019-04-01T20:49:49.148Z,14.27
2019-04-01T20:52:16.371Z,14.80
2019-04-01T20:54:45.014Z,15.83
2019-04-01T20:57:12.432Z,16.47
2019-04-01T20:59:40.921Z,15.60
2019-04-01T21:02:08.354Z,15.53
2019-04-01T21:04:35.583Z,15.80
2019-04-01T21:07:02.807Z,15.80
2019-04-01T21:09:30.043Z,14.90
2019-04-01T21:11:57.265Z,15.20
2019-04-01T21:14:24.491Z,14.90
2019-04-01T21:16:51.712Z,16.17
2019-04-01T21:19:18.935Z,17.70
2019-04-01T21:21:46.163Z,13.67
2019-04-01T21:24:14.266Z,16.30
2019-04-01T21:26:41.518Z,15.90
2019-04-01T21:29:08.751Z,16.80
2019-04-01T21:31:35.975Z,15.97
2019-04-01T21:34:03.284Z,15.17
2019-04-01T21:36:30.510Z,17.17
2019-04-01T21:38:57.746Z,15.63
2019-04-01T21:41:25.403Z,15.70
2019-04-01T21:43:53.181Z,15.50
2019-04-01T21:46:20.398Z,14.90
2019-04-01T21:48:47.629Z,16.70
2019-04-01T21:51:14.849Z,18.20
2019-04-01T21:53:42.079Z,16.70
2019-04-01T21:56:09.304Z,18.73
2019-04-01T21:58:36.530Z,19.83
2019-04-01T22:01:03.829Z,19.73
2019-04-01T22:03:31.055Z,18.17
2019-04-01T22:05:58.275Z,18.90
2019-04-01T22:08:25.511Z,17.40
2019-04-01T22:10:52.825Z,18.40
2019-04-01T22:13:20.041Z,17.43
2019-04-01T22:15:47.319Z,18.60
2019-04-01T22:18:14.754Z,15.80
2019-04-01T22:20:42.668Z,16.87
2019-04-01T22:23:09.985Z,19.40
2019-04-01T22:25:37.208Z,18.23
2019-04-01T22:28:04.738Z,17.23
2019-04-01T22:30:31.965Z,18.20
2019-04-01T22:32:59.182Z,16.57
2019-04-01T22:35:37.838Z,16.10
2019-04-01T22:37:55.376Z,17.23
2019-04-01T22:40:22.621Z,15.87
2019-04-01T22:42:50.157Z,18.00
2019-04-01T22:45:17.403Z,16.33
2019-04-01T22:47:45.484Z,17.17
2019-04-01T22:50:13.096Z,19.30
2019-04-01T22:52:42.145Z,16.90
2019-04-01T22:55:09.267Z,17.57
2019-04-01T22:57:36.502Z,17.37
2019-04-01T23:00:04.695Z,16.43
2019-04-01T23:02:31.924Z,18.10
2019-04-01T23:04:59.152Z,17.57
2019-04-01T23:07:26.666Z,17.17
2019-04-01T23:09:53.894Z,18.40
2019-04-01T23:12:22.248Z,17.00
2019-04-01T23:14:49.694Z,18.67
2019-04-01T23:17:16.914Z,18.00
2019-04-01T23:19:44.151Z,19.43
2019-04-01T23:22:11.371Z,18.67
2019-04-01T23:24:38.602Z,20.70
2019-04-01T23:27:05.864Z,20.20
2019-04-01T23:29:33.146Z,21.73
2019-04-01T23:32:00.375Z,20.80
2019-04-01T23:34:27.601Z,19.03
2019-04-01T23:36:54.879Z,19.57
2019-04-01T23:39:22.099Z,19.67
2019-04-01T23:41:49.633Z,19.33
2019-04-01T23:44:16.854Z,19.17
2019-04-01T23:46:44.083Z,19.17
2019-04-01T23:49:11.584Z,18.87
2019-04-01T23:51:38.907Z,19.47
2019-04-01T23:54:06.128Z,19.90
2019-04-01T23:56:33.393Z,21.67
2019-04-01T23:59:00.616Z,20.10
